LPPSLPMA

Guest
Details From LPPS - Porto Santo
To LPMA - Madeira
Flight Number -
Tags Routegen Generated
Created
Modified
Stats Distance 31 nm / 58 km
Max Altitude 100 ft / 30 m
Waypoints 5
Social Downloads 39
Likes 0
Share

Download

Looking for another format? Having issues loading an existing format? Contact us
Advertisement - Login to hide

Notes

Departing runway 17 LPPS. Arriving runway 4 LPMA.

Route

LPPS +32.99_-016.35 +32.87_-016.53 +32.76_-016.71 LPMA

ID Type Via Altitude (ft/m) Position (lat/lon) Dist (leg/tot) Name
O LPPS APT - 0 / 0 33.05987 / -16.34941 - / 0 nm
+32.99_-016.35 LATLON - 100 / 30 32.98754 / -16.34658 4 / 4 nm
+32.87_-016.53 LATLON - 100 / 30 32.87343 / -16.52635 11 / 15 nm
+32.76_-016.71 LATLON - 100 / 30 32.75933 / -16.70613 11 / 27 nm
O LPMA APT - 0 / 0 32.70641 / -16.76481 4 / 31 nm

Altitude Profile

Advertisement - Login to hide

LPPS

Details ICAO LPPS (PXO)
Name Porto Santo
Region Portugal
Timezone Atlantic/Madeira (UTC+1.0)
Stats Elevation 340 ft / 104 m (AMSL)
Location 33.073300° -16.349800°
Runways 1
Magnetic Variation 4.343° W

METAR

LPPS 261430Z 02013KT 350V050 9999 FEW015 22/14 Q1022

Decode

TAF

TAF LPPS 261100Z 2612/2718 04010KT 9999 SCT015 SCT030

Decode

Departure Runways

ID Width Length Bearing (true/mag) Surface Threshold Overrun Markings Lighting
18 140 ft / 43 m 9,856 ft / 3,004 m 178.12° / 182.46° ASPHALT 0 ft / 0 m 0 ft / 0 m PREC-APP EDGE THRESHOLD SALS
36 140 ft / 43 m 9,856 ft / 3,004 m 358.12° / 2.46° ASPHALT 0 ft / 0 m 0 ft / 0 m PREC-APP EDGE THRESHOLD SALS

LPMA

Details ICAO LPMA (FNC)
Name Madeira/Funchal - Cristiano Ronaldo
Region Portugal
Timezone Atlantic/Madeira (UTC+1.0)
Stats Elevation 189 ft / 58 m (AMSL)
Location 32.697900° -16.774400°
Runways 1
Magnetic Variation 4.507° W

METAR

LPMA 261430Z 01011KT 340V040 9999 SCT016 23/13 Q1022

Decode

TAF

TAF LPMA 261100Z 2612/2712 02013KT 9999 SCT015 TEMPO 2612/2712 FEW015 BKN030

Decode

Destination Runways

ID Width Length Bearing (true/mag) Surface Threshold Overrun Markings Lighting
05 148 ft / 45 m 9,133 ft / 2,784 m 44.60° / 49.10° ASPHALT 482 ft / 147 m 0 ft / 0 m PREC-APP CENTERLINE EDGE THRESHOLD TDZ REIL-OMNI
23 148 ft / 45 m 9,133 ft / 2,784 m 224.61° / 229.12° ASPHALT 482 ft / 147 m 0 ft / 0 m PREC-APP CENTERLINE EDGE THRESHOLD TDZ REIL-OMNI

Popular Alternatives